createdAt,value
2023-10-06T00:00:27.968Z,16.44
2023-10-06T00:02:57.356Z,16.51
2023-10-06T00:05:26.234Z,16.54
2023-10-06T00:07:54.757Z,16.60
2023-10-06T00:10:23.716Z,16.64
2023-10-06T00:12:55.603Z,16.68
2023-10-06T00:15:27.974Z,16.71
2023-10-06T00:18:08.768Z,16.77
2023-10-06T00:20:43.407Z,16.84
2023-10-06T00:23:14.555Z,16.88
2023-10-06T00:25:44.477Z,16.93
2023-10-06T00:28:20.838Z,17.01
2023-10-06T00:30:49.959Z,17.01
2023-10-06T00:33:21.450Z,17.06
2023-10-06T00:35:49.817Z,17.09
2023-10-06T00:38:18.808Z,17.13
2023-10-06T00:40:52.394Z,17.14
2023-10-06T00:43:29.779Z,17.16
2023-10-06T00:46:01.546Z,17.15
2023-10-06T00:48:31.642Z,17.20
2023-10-06T00:51:00.561Z,17.21
2023-10-06T00:53:33.048Z,17.28
2023-10-06T00:56:04.338Z,17.31
2023-10-06T00:58:35.483Z,17.27
2023-10-06T01:01:06.712Z,17.28
2023-10-06T01:03:40.213Z,17.24
2023-10-06T01:06:13.777Z,17.29
2023-10-06T01:08:46.667Z,17.28
2023-10-06T01:11:17.915Z,17.25
2023-10-06T01:13:56.544Z,17.19
2023-10-06T01:16:27.362Z,17.23
2023-10-06T01:19:02.678Z,17.20
2023-10-06T01:21:31.000Z,17.21
2023-10-06T01:24:04.764Z,17.13
2023-10-06T01:26:32.765Z,17.20
2023-10-06T01:29:01.150Z,17.17
2023-10-06T01:31:29.210Z,17.10
2023-10-06T01:33:57.539Z,16.95
2023-10-06T01:36:26.233Z,16.81
2023-10-06T01:38:54.525Z,16.67
2023-10-06T01:41:27.464Z,16.52
2023-10-06T01:43:55.733Z,16.40
2023-10-06T01:46:25.741Z,16.33
2023-10-06T01:48:53.768Z,16.28
2023-10-06T01:51:23.955Z,16.23
2023-10-06T01:53:52.228Z,16.29
2023-10-06T01:56:23.477Z,16.30
2023-10-06T01:58:53.160Z,16.38
2023-10-06T02:01:21.274Z,16.45
2023-10-06T02:03:49.273Z,16.46
2023-10-06T02:06:18.069Z,16.49
2023-10-06T02:08:50.917Z,16.53
2023-10-06T02:11:19.357Z,16.49
2023-10-06T02:13:47.358Z,16.48
2023-10-06T02:16:19.353Z,16.54
2023-10-06T02:18:47.326Z,16.55
2023-10-06T02:21:16.178Z,16.59
2023-10-06T02:23:45.356Z,16.54
2023-10-06T02:26:15.436Z,16.44
2023-10-06T02:28:49.627Z,16.31
2023-10-06T02:31:22.799Z,16.18
2023-10-06T02:33:52.719Z,16.10
2023-10-06T02:36:23.018Z,16.02
2023-10-06T02:38:51.532Z,15.85
2023-10-06T02:41:24.526Z,15.74
2023-10-06T02:43:53.131Z,15.73
2023-10-06T02:46:27.193Z,15.72
2023-10-06T02:48:55.752Z,15.70
2023-10-06T02:51:30.289Z,15.67
2023-10-06T02:54:11.051Z,15.63
2023-10-06T02:56:40.093Z,15.61
2023-10-06T02:59:21.677Z,15.52
2023-10-06T03:01:57.120Z,15.63
2023-10-06T03:04:27.232Z,15.58
2023-10-06T03:06:56.716Z,15.59
2023-10-06T03:09:37.873Z,15.63
2023-10-06T03:12:12.942Z,15.61
2023-10-06T03:14:40.949Z,15.58
2023-10-06T03:17:11.081Z,15.57
2023-10-06T03:19:41.892Z,15.58
2023-10-06T03:22:11.277Z,15.55
2023-10-06T03:24:53.777Z,15.52
2023-10-06T03:27:24.918Z,15.56
2023-10-06T03:29:55.831Z,15.58
2023-10-06T03:32:33.780Z,15.65
2023-10-06T03:35:12.805Z,15.71
2023-10-06T03:37:53.032Z,15.78
2023-10-06T03:40:26.119Z,15.80
2023-10-06T03:42:55.186Z,15.85
2023-10-06T03:45:32.454Z,15.85
2023-10-06T03:48:12.935Z,15.87
2023-10-06T03:50:43.840Z,15.90
2023-10-06T03:53:13.572Z,15.97
2023-10-06T03:55:41.772Z,16.05
2023-10-06T03:58:10.534Z,16.07
2023-10-06T04:00:41.612Z,16.06
2023-10-06T04:03:14.728Z,15.97
2023-10-06T04:05:45.560Z,15.89
2023-10-06T04:08:16.543Z,15.75
2023-10-06T04:10:46.011Z,15.62
2023-10-06T04:13:14.877Z,15.58
2023-10-06T04:15:45.022Z,15.52
2023-10-06T04:18:17.992Z,15.36
2023-10-06T04:20:47.210Z,15.31
2023-10-06T04:23:16.029Z,15.33
2023-10-06T04:25:44.099Z,15.28
2023-10-06T04:28:14.968Z,15.20
2023-10-06T04:30:44.419Z,15.15
2023-10-06T04:33:15.228Z,15.09
2023-10-06T04:35:48.975Z,15.12
2023-10-06T04:38:17.138Z,15.16
2023-10-06T04:40:45.168Z,15.14
2023-10-06T04:43:13.264Z,15.13
2023-10-06T04:45:41.262Z,15.29
2023-10-06T04:48:10.881Z,15.37
2023-10-06T04:50:40.218Z,15.41
2023-10-06T04:53:08.324Z,15.52
2023-10-06T04:55:39.004Z,15.59
2023-10-06T04:58:07.602Z,15.71
2023-10-06T05:00:35.807Z,15.80
2023-10-06T05:03:07.346Z,15.96
2023-10-06T05:05:39.109Z,16.12
2023-10-06T05:08:11.051Z,16.31
2023-10-06T05:10:41.207Z,16.38
2023-10-06T05:13:09.379Z,16.49
2023-10-06T05:15:38.338Z,16.35
2023-10-06T05:18:06.801Z,16.64
2023-10-06T05:20:36.386Z,16.68
2023-10-06T05:23:07.381Z,16.94
2023-10-06T05:25:36.799Z,17.25
2023-10-06T05:28:05.423Z,17.42
2023-10-06T05:30:33.970Z,17.57
2023-10-06T05:33:02.214Z,17.71
2023-10-06T05:35:31.195Z,17.83
2023-10-06T05:37:59.809Z,18.04
2023-10-06T05:40:30.977Z,18.11
2023-10-06T05:43:02.048Z,18.34
2023-10-06T05:45:30.920Z,18.61
2023-10-06T05:48:00.165Z,18.88
2023-10-06T05:50:29.286Z,19.16
2023-10-06T05:53:00.173Z,19.47
2023-10-06T05:55:31.847Z,19.63
2023-10-06T05:58:01.768Z,19.66
2023-10-06T06:00:31.396Z,19.91
2023-10-06T06:03:00.676Z,20.22
2023-10-06T06:05:31.040Z,20.47
2023-10-06T06:08:00.979Z,20.59
2023-10-06T06:10:30.388Z,20.78
2023-10-06T06:12:58.417Z,21.01
2023-10-06T06:15:27.872Z,21.21
2023-10-06T06:17:55.942Z,21.49
2023-10-06T06:20:24.048Z,21.57
2023-10-06T06:22:56.571Z,21.58
2023-10-06T06:25:24.833Z,21.68
2023-10-06T06:51:32.137Z,19.93
2023-10-06T06:54:00.446Z,20.17
2023-10-06T06:56:30.210Z,20.46
2023-10-06T06:59:01.105Z,20.58
2023-10-06T07:01:29.481Z,20.95
2023-10-06T07:04:02.337Z,21.17
2023-10-06T07:06:33.078Z,21.46
2023-10-06T07:09:01.378Z,21.92
2023-10-06T07:11:29.448Z,22.28
2023-10-06T07:13:58.449Z,22.64
2023-10-06T07:16:26.638Z,22.83
2023-10-06T07:18:54.836Z,22.97
2023-10-06T07:21:23.904Z,23.20
2023-10-06T07:23:57.803Z,23.51
2023-10-06T07:26:26.146Z,23.45
2023-10-06T07:28:55.214Z,23.68
2023-10-06T07:31:23.314Z,23.62
2023-10-06T07:33:53.419Z,23.80
2023-10-06T07:36:21.870Z,23.74
2023-10-06T07:38:50.572Z,23.76
2023-10-06T07:41:24.756Z,23.82
2023-10-06T07:43:53.355Z,23.76
2023-10-06T07:46:21.596Z,23.84
2023-10-06T07:48:51.743Z,23.91
2023-10-06T07:51:20.920Z,23.55
2023-10-06T07:53:49.684Z,23.79
2023-10-06T07:56:20.077Z,23.76
2023-10-06T07:58:52.251Z,23.94
2023-10-06T08:01:22.310Z,24.17
2023-10-06T08:03:50.375Z,24.12
2023-10-06T08:06:18.452Z,24.52
2023-10-06T08:08:46.497Z,24.68
2023-10-06T08:11:14.746Z,24.74
2023-10-06T08:13:43.501Z,24.50
2023-10-06T08:16:14.446Z,24.54
2023-10-06T08:18:42.478Z,24.33
2023-10-06T08:21:12.184Z,24.54
2023-10-06T08:23:40.496Z,24.45
2023-10-06T08:26:10.261Z,24.94
2023-10-06T08:28:38.527Z,25.14
2023-10-06T08:31:06.594Z,25.71
2023-10-06T08:33:37.472Z,26.17
2023-10-06T08:36:09.590Z,26.40
2023-10-06T08:38:37.739Z,26.28
2023-10-06T08:41:06.065Z,26.02
2023-10-06T08:43:35.838Z,26.21
2023-10-06T08:46:03.968Z,26.42
2023-10-06T08:48:33.240Z,26.28
2023-10-06T08:51:05.546Z,26.27
2023-10-06T08:53:34.125Z,27.22
2023-10-06T08:56:02.142Z,27.74
2023-10-06T08:58:30.567Z,27.94
2023-10-06T09:00:58.674Z,27.76
2023-10-06T09:03:28.915Z,28.24
2023-10-06T09:05:57.407Z,27.94
2023-10-06T09:08:26.871Z,28.47
2023-10-06T09:10:57.166Z,28.46
2023-10-06T09:13:25.336Z,28.59
2023-10-06T09:16:00.831Z,28.78
2023-10-06T09:18:29.426Z,28.34
2023-10-06T09:20:58.305Z,28.67
2023-10-06T09:23:34.504Z,28.62
2023-10-06T09:26:02.772Z,27.95
2023-10-06T09:28:32.367Z,27.59
2023-10-06T09:31:06.752Z,27.92
2023-10-06T09:33:44.045Z,28.32
2023-10-06T09:36:13.003Z,28.62
2023-10-06T09:38:43.350Z,28.43
2023-10-06T09:41:11.369Z,28.67
2023-10-06T09:43:39.884Z,28.60
2023-10-06T09:46:12.543Z,27.93
2023-10-06T09:48:41.534Z,28.18
2023-10-06T09:51:10.331Z,28.15
2023-10-06T09:53:39.661Z,28.61
2023-10-06T09:56:11.399Z,28.57
2023-10-06T09:58:40.003Z,28.69
2023-10-06T10:01:11.511Z,29.08
2023-10-06T10:03:39.976Z,29.54
2023-10-06T10:06:08.071Z,30.39
2023-10-06T10:08:36.792Z,30.89
2023-10-06T10:11:09.376Z,30.91
2023-10-06T10:13:48.122Z,31.23
2023-10-06T10:16:39.904Z,31.33
2023-10-06T10:19:10.794Z,31.10
2023-10-06T10:21:38.795Z,31.50
2023-10-06T10:24:49.478Z,31.61
2023-10-06T10:26:55.974Z,31.18
2023-10-06T10:29:34.178Z,30.74
2023-10-06T10:32:08.510Z,30.20
2023-10-06T10:34:39.623Z,29.85
2023-10-06T10:37:17.876Z,29.89
2023-10-06T10:39:50.855Z,29.78
2023-10-06T10:42:22.629Z,29.54
2023-10-06T10:44:52.042Z,30.01
2023-10-06T10:47:21.438Z,29.73
2023-10-06T10:49:49.817Z,29.58
2023-10-06T10:52:18.099Z,29.11
2023-10-06T10:54:46.068Z,28.98
2023-10-06T10:57:15.977Z,29.12
2023-10-06T11:00:14.917Z,29.10
2023-10-06T11:02:44.032Z,29.58
2023-10-06T11:05:12.929Z,30.08
2023-10-06T11:07:42.961Z,30.34
2023-10-06T11:10:14.057Z,30.29
2023-10-06T11:12:42.177Z,29.41
2023-10-06T11:15:17.912Z,29.67
2023-10-06T11:17:46.468Z,30.24
2023-10-06T11:20:23.485Z,30.84
2023-10-06T11:22:55.779Z,31.00
2023-10-06T11:25:28.685Z,30.66
2023-10-06T11:27:57.868Z,30.78
2023-10-06T11:30:29.759Z,30.74
2023-10-06T11:32:59.022Z,30.84
2023-10-06T11:35:27.612Z,31.23
2023-10-06T11:37:56.457Z,30.94
2023-10-06T11:40:25.918Z,30.46
2023-10-06T11:42:55.038Z,30.14
2023-10-06T11:45:29.046Z,30.14
2023-10-06T11:47:57.726Z,29.32
2023-10-06T11:50:26.847Z,29.07
2023-10-06T11:52:56.630Z,28.90
2023-10-06T11:55:26.194Z,28.69
2023-10-06T11:57:54.269Z,28.23
2023-10-06T12:00:38.299Z,28.03
2023-10-06T12:03:07.875Z,28.04
2023-10-06T12:05:36.462Z,28.17
2023-10-06T12:08:06.378Z,28.39
2023-10-06T12:10:39.152Z,28.14
2023-10-06T12:13:07.654Z,28.12
2023-10-06T12:15:37.053Z,28.40
2023-10-06T12:18:05.902Z,28.14
2023-10-06T12:20:36.818Z,28.04
2023-10-06T12:23:05.039Z,28.04
2023-10-06T12:25:33.225Z,27.83
2023-10-06T12:28:01.602Z,27.74
2023-10-06T12:30:30.464Z,27.81
2023-10-06T12:33:00.500Z,27.92
2023-10-06T12:35:31.502Z,27.91
2023-10-06T12:38:01.435Z,27.94
2023-10-06T12:40:31.162Z,27.38
2023-10-06T12:42:59.171Z,27.41
2023-10-06T12:45:30.289Z,27.48
2023-10-06T12:48:03.428Z,27.34
2023-10-06T12:50:31.926Z,27.40
2023-10-06T12:52:59.958Z,27.48
2023-10-06T12:55:28.562Z,27.37
2023-10-06T12:57:56.552Z,27.52
2023-10-06T13:00:24.587Z,27.55
2023-10-06T13:02:53.370Z,27.69
2023-10-06T13:05:24.216Z,27.54
2023-10-06T13:07:52.896Z,27.44
2023-10-06T13:10:23.685Z,27.23
2023-10-06T13:12:51.828Z,27.24
2023-10-06T13:15:20.964Z,27.29
2023-10-06T13:17:49.884Z,27.29
2023-10-06T13:20:17.985Z,27.27
2023-10-06T13:22:48.879Z,27.22
2023-10-06T13:25:17.696Z,27.09
2023-10-06T13:27:49.135Z,26.86
2023-10-06T13:30:18.356Z,26.60
2023-10-06T13:32:49.663Z,26.44
2023-10-06T13:35:18.547Z,26.42
2023-10-06T13:37:48.019Z,26.43
2023-10-06T13:40:17.203Z,26.41
2023-10-06T13:42:47.320Z,26.42
2023-10-06T13:45:21.704Z,26.47
2023-10-06T13:47:50.665Z,26.43
2023-10-06T13:50:20.446Z,26.33
2023-10-06T13:52:50.829Z,26.30
2023-10-06T13:55:19.232Z,26.22
2023-10-06T13:57:47.753Z,26.20
2023-10-06T14:00:22.606Z,26.24
2023-10-06T14:02:51.944Z,26.28
2023-10-06T14:05:20.820Z,26.08
2023-10-06T14:07:50.240Z,26.03
2023-10-06T14:10:22.661Z,25.94
2023-10-06T14:12:57.597Z,25.92
2023-10-06T14:15:31.607Z,25.84
2023-10-06T14:18:00.064Z,25.58
2023-10-06T14:20:31.167Z,25.53
2023-10-06T14:23:00.673Z,25.62
2023-10-06T14:25:28.785Z,25.61
2023-10-06T14:27:57.063Z,25.64
2023-10-06T14:30:26.903Z,25.51
2023-10-06T14:33:15.146Z,25.52
2023-10-06T14:36:11.102Z,25.40
2023-10-06T14:38:58.010Z,25.10
2023-10-06T14:41:43.597Z,24.94
2023-10-06T14:44:28.923Z,24.75
2023-10-06T14:46:59.927Z,24.77
2023-10-06T14:49:29.750Z,24.63
2023-10-06T14:51:58.359Z,24.56
2023-10-06T14:54:31.949Z,24.43
2023-10-06T14:57:00.530Z,24.35
2023-10-06T14:59:32.575Z,24.28
2023-10-06T15:02:04.897Z,24.20
2023-10-06T15:04:33.159Z,24.04
2023-10-06T15:07:02.923Z,23.93
2023-10-06T15:09:34.529Z,23.87
2023-10-06T15:12:04.474Z,23.79
2023-10-06T15:14:34.890Z,23.67
2023-10-06T15:17:05.210Z,23.58
2023-10-06T15:19:37.174Z,23.48
2023-10-06T15:22:09.509Z,23.27
2023-10-06T15:24:41.346Z,23.15
2023-10-06T15:27:09.681Z,23.08
2023-10-06T15:29:38.801Z,22.97
2023-10-06T15:32:07.274Z,22.87
2023-10-06T15:34:36.653Z,22.73
2023-10-06T15:37:05.960Z,22.64
2023-10-06T15:39:34.240Z,22.52
2023-10-06T15:42:05.244Z,22.37
2023-10-06T15:44:33.902Z,22.32
2023-10-06T15:47:02.964Z,22.22
2023-10-06T15:49:31.008Z,21.85
2023-10-06T15:51:59.039Z,21.81
2023-10-06T15:54:27.254Z,21.74
2023-10-06T15:56:55.209Z,21.56
2023-10-06T15:59:26.289Z,21.54
2023-10-06T16:01:55.878Z,21.42
2023-10-06T16:04:26.737Z,21.32
2023-10-06T16:06:59.198Z,21.15
2023-10-06T16:09:27.790Z,21.14
2023-10-06T16:11:55.822Z,20.99
2023-10-06T16:14:25.229Z,20.89
2023-10-06T16:16:54.387Z,20.83
2023-10-06T16:19:22.957Z,20.63
2023-10-06T16:21:53.335Z,20.51
2023-10-06T16:24:21.466Z,20.40
2023-10-06T16:26:49.427Z,20.31
2023-10-06T16:29:17.644Z,20.26
2023-10-06T16:31:47.599Z,20.18
2023-10-06T16:34:15.735Z,20.13
2023-10-06T16:36:44.061Z,20.01
2023-10-06T16:39:20.978Z,19.93
2023-10-06T16:41:49.010Z,19.90
2023-10-06T16:44:17.044Z,19.90
2023-10-06T16:46:46.573Z,19.80
2023-10-06T16:49:14.830Z,19.80
2023-10-06T16:51:44.460Z,19.75
2023-10-06T16:54:12.489Z,19.66
2023-10-06T16:56:40.751Z,19.55
2023-10-06T16:59:08.953Z,19.49
2023-10-06T17:01:37.666Z,19.42
2023-10-06T17:04:10.037Z,19.42
2023-10-06T17:06:38.849Z,19.32
2023-10-06T17:09:15.246Z,19.37
2023-10-06T17:11:44.233Z,19.37
2023-10-06T17:14:13.423Z,19.38
2023-10-06T17:16:42.956Z,19.33
2023-10-06T17:19:13.730Z,19.31
2023-10-06T17:21:43.729Z,19.31
2023-10-06T17:24:12.127Z,19.36
2023-10-06T17:26:40.451Z,19.36
2023-10-06T17:29:09.202Z,19.38
2023-10-06T17:31:37.509Z,19.39
2023-10-06T17:34:05.788Z,19.39
2023-10-06T17:36:35.223Z,19.42
2023-10-06T17:39:04.182Z,19.40
2023-10-06T17:41:32.274Z,19.38
2023-10-06T17:44:00.375Z,19.37
2023-10-06T17:46:28.355Z,19.34
2023-10-06T17:48:57.916Z,19.34
2023-10-06T17:51:26.586Z,19.33
2023-10-06T17:53:56.028Z,19.26
2023-10-06T17:56:24.073Z,19.24
2023-10-06T17:58:53.618Z,19.30
2023-10-06T18:01:23.377Z,19.25
2023-10-06T18:03:51.666Z,19.29
2023-10-06T18:06:19.854Z,19.28
2023-10-06T18:08:50.008Z,19.24
2023-10-06T18:11:19.694Z,19.22
2023-10-06T18:13:47.828Z,19.21
2023-10-06T18:16:16.027Z,19.21
2023-10-06T18:18:44.173Z,19.16
2023-10-06T18:21:12.278Z,19.14
2023-10-06T18:23:42.440Z,19.18
2023-10-06T18:26:14.412Z,19.18
2023-10-06T18:28:43.948Z,19.14
2023-10-06T18:31:12.049Z,19.17
2023-10-06T18:33:41.484Z,19.14
2023-10-06T18:36:11.345Z,19.16
2023-10-06T18:38:39.982Z,19.09
2023-10-06T18:41:09.129Z,19.08
2023-10-06T18:43:37.227Z,18.99
2023-10-06T18:46:10.833Z,19.00
2023-10-06T18:48:39.017Z,18.92
2023-10-06T18:51:07.277Z,18.91
2023-10-06T18:53:35.270Z,18.83
2023-10-06T18:56:04.675Z,18.85
2023-10-06T18:58:33.383Z,18.82
2023-10-06T19:01:01.652Z,18.80
2023-10-06T19:03:31.244Z,18.71
2023-10-06T19:06:05.175Z,18.66
2023-10-06T19:08:34.877Z,18.60
2023-10-06T19:11:07.322Z,18.51
2023-10-06T19:13:35.526Z,18.42
2023-10-06T19:16:05.110Z,18.36
2023-10-06T19:18:34.787Z,18.26
2023-10-06T19:21:02.759Z,18.19
2023-10-06T19:23:31.994Z,18.11
2023-10-06T19:26:04.528Z,18.05
2023-10-06T19:28:32.631Z,18.02
2023-10-06T19:31:00.742Z,17.98
2023-10-06T19:33:29.460Z,17.89
2023-10-06T19:35:59.060Z,17.82
2023-10-06T19:38:27.117Z,17.78
2023-10-06T19:40:55.209Z,17.77
2023-10-06T19:43:23.459Z,17.83
2023-10-06T19:45:53.008Z,17.86
2023-10-06T19:48:21.226Z,17.96
2023-10-06T19:50:49.542Z,17.99
2023-10-06T19:53:19.374Z,18.06
2023-10-06T19:55:48.457Z,17.98
2023-10-06T19:58:18.007Z,17.97
2023-10-06T20:00:49.455Z,18.03
2023-10-06T20:03:17.623Z,18.00
2023-10-06T20:05:45.704Z,18.00
2023-10-06T20:08:13.695Z,17.95
2023-10-06T20:10:43.298Z,17.90
2023-10-06T20:13:11.480Z,17.84
2023-10-06T20:15:39.546Z,17.80
2023-10-06T20:18:07.819Z,17.70
2023-10-06T20:20:35.797Z,17.74
2023-10-06T20:23:03.796Z,17.70
2023-10-06T20:25:31.786Z,17.63
2023-10-06T20:28:01.161Z,17.59
2023-10-06T20:30:29.187Z,17.49
2023-10-06T20:32:57.433Z,17.43
2023-10-06T20:35:25.999Z,17.33
2023-10-06T20:37:54.025Z,17.24
2023-10-06T20:40:26.885Z,17.21
2023-10-06T20:42:56.684Z,17.23
2023-10-06T20:45:28.072Z,17.26
2023-10-06T20:47:56.375Z,17.30
2023-10-06T20:50:24.457Z,17.29
2023-10-06T20:52:53.116Z,17.37
2023-10-06T20:55:21.357Z,17.34
2023-10-06T20:57:49.773Z,17.41
2023-10-06T21:00:19.499Z,17.42
2023-10-06T21:02:48.969Z,17.40
2023-10-06T21:05:18.451Z,17.34
2023-10-06T21:07:46.631Z,17.28
2023-10-06T21:10:17.764Z,17.17
2023-10-06T21:12:45.807Z,17.08
2023-10-06T21:15:15.317Z,17.04
2023-10-06T21:17:44.133Z,16.92
2023-10-06T21:20:16.502Z,16.85
2023-10-06T21:22:45.104Z,16.78
2023-10-06T21:25:15.066Z,16.71
2023-10-06T21:27:43.403Z,16.64
2023-10-06T21:30:17.057Z,16.55
2023-10-06T21:32:45.882Z,16.44
2023-10-06T21:35:16.131Z,16.30
2023-10-06T21:37:45.844Z,16.27
2023-10-06T21:40:14.370Z,16.16
2023-10-06T21:42:42.632Z,16.14
2023-10-06T21:45:11.325Z,16.18
2023-10-06T21:47:39.601Z,16.27
2023-10-06T21:50:10.331Z,16.30
2023-10-06T21:52:41.836Z,16.49
2023-10-06T21:55:10.629Z,16.55
2023-10-06T21:57:39.539Z,16.57
2023-10-06T22:00:26.072Z,16.58
2023-10-06T22:02:55.093Z,16.52
2023-10-06T22:05:23.456Z,16.48
2023-10-06T22:07:53.068Z,16.42
2023-10-06T22:10:21.276Z,16.35
2023-10-06T22:12:50.080Z,16.26
2023-10-06T22:15:18.139Z,16.16
2023-10-06T22:17:47.094Z,16.10
2023-10-06T22:20:15.671Z,16.05
2023-10-06T22:22:43.818Z,15.96
2023-10-06T22:25:14.548Z,15.89
2023-10-06T22:27:43.930Z,15.76
2023-10-06T22:30:13.514Z,15.72
2023-10-06T22:32:41.982Z,15.61
2023-10-06T22:35:12.115Z,15.51
2023-10-06T22:37:40.226Z,15.42
2023-10-06T22:40:17.657Z,15.29
2023-10-06T22:42:49.082Z,15.21
2023-10-06T22:45:20.011Z,15.13
2023-10-06T22:47:49.615Z,15.07
2023-10-06T22:50:20.226Z,15.03
2023-10-06T22:52:49.027Z,15.00
2023-10-06T22:55:18.022Z,14.99
2023-10-06T22:57:47.482Z,14.91
2023-10-06T23:00:18.392Z,14.92
2023-10-06T23:02:48.260Z,14.91
2023-10-06T23:05:17.174Z,14.91
2023-10-06T23:07:45.277Z,14.99
2023-10-06T23:10:14.066Z,15.06
2023-10-06T23:12:42.444Z,15.11
2023-10-06T23:15:13.236Z,15.15
2023-10-06T23:17:42.121Z,15.17
2023-10-06T23:20:16.840Z,15.20
2023-10-06T23:22:44.906Z,15.29
2023-10-06T23:25:21.129Z,15.33
2023-10-06T23:27:49.455Z,15.38
2023-10-06T23:30:19.470Z,15.18
2023-10-06T23:32:47.556Z,15.44
2023-10-06T23:35:15.735Z,15.49
2023-10-06T23:37:45.969Z,15.45
2023-10-06T23:40:21.623Z,15.47
2023-10-06T23:42:51.729Z,15.48
2023-10-06T23:45:21.110Z,15.49
2023-10-06T23:47:49.192Z,15.51
2023-10-06T23:50:18.366Z,15.51
2023-10-06T23:52:47.594Z,15.37
2023-10-06T23:55:16.537Z,15.44
2023-10-06T23:57:46.868Z,15.37
